sensor_id;sensor_type;location;lat;lon;timestamp;P1;durP1;ratioP1;P2;durP2;ratioP2
31390;SDS011;18022;45.492;11.548;2023-02-11T00:01:06;26.17;;;17.13;;
31390;SDS011;18022;45.492;11.548;2023-02-11T00:03:33;28.17;;;18.23;;
31390;SDS011;18022;45.492;11.548;2023-02-11T00:06:00;29.08;;;17.98;;
31390;SDS011;18022;45.492;11.548;2023-02-11T00:08:26;28.73;;;17.43;;
31390;SDS011;18022;45.492;11.548;2023-02-11T00:10:53;28.05;;;16.88;;
31390;SDS011;18022;45.492;11.548;2023-02-11T00:13:19;28.17;;;18.23;;
31390;SDS011;18022;45.492;11.548;2023-02-11T00:15:45;28.08;;;17.70;;
31390;SDS011;18022;45.492;11.548;2023-02-11T00:18:11;27.23;;;17.80;;
31390;SDS011;18022;45.492;11.548;2023-02-11T00:20:37;28.40;;;17.45;;
31390;SDS011;18022;45.492;11.548;2023-02-11T00:23:04;30.30;;;18.30;;
31390;SDS011;18022;45.492;11.548;2023-02-11T00:25:30;27.52;;;17.38;;
31390;SDS011;18022;45.492;11.548;2023-02-11T00:27:56;28.60;;;17.85;;
31390;SDS011;18022;45.492;11.548;2023-02-11T00:30:22;30.27;;;18.77;;
31390;SDS011;18022;45.492;11.548;2023-02-11T00:32:48;28.08;;;18.25;;
31390;SDS011;18022;45.492;11.548;2023-02-11T00:35:14;30.60;;;18.73;;
31390;SDS011;18022;45.492;11.548;2023-02-11T00:37:40;28.13;;;18.25;;
31390;SDS011;18022;45.492;11.548;2023-02-11T00:40:06;29.33;;;18.48;;
31390;SDS011;18022;45.492;11.548;2023-02-11T00:42:33;28.33;;;17.92;;
31390;SDS011;18022;45.492;11.548;2023-02-11T00:45:02;28.98;;;17.70;;
31390;SDS011;18022;45.492;11.548;2023-02-11T00:47:28;29.48;;;17.63;;
31390;SDS011;18022;45.492;11.548;2023-02-11T00:49:54;25.83;;;16.45;;
31390;SDS011;18022;45.492;11.548;2023-02-11T00:52:20;26.77;;;15.73;;
31390;SDS011;18022;45.492;11.548;2023-02-11T00:54:46;28.20;;;17.30;;
31390;SDS011;18022;45.492;11.548;2023-02-11T00:57:12;34.47;;;18.10;;
31390;SDS011;18022;45.492;11.548;2023-02-11T00:59:38;29.88;;;17.67;;
31390;SDS011;18022;45.492;11.548;2023-02-11T01:02:04;32.80;;;18.55;;
31390;SDS011;18022;45.492;11.548;2023-02-11T01:07:34;26.63;;;16.50;;
31390;SDS011;18022;45.492;11.548;2023-02-11T01:10:00;29.33;;;17.33;;
31390;SDS011;18022;45.492;11.548;2023-02-11T01:12:26;27.48;;;16.70;;
31390;SDS011;18022;45.492;11.548;2023-02-11T01:14:52;27.48;;;17.13;;
31390;SDS011;18022;45.492;11.548;2023-02-11T01:17:18;29.80;;;16.33;;
31390;SDS011;18022;45.492;11.548;2023-02-11T01:19:44;25.15;;;16.02;;
31390;SDS011;18022;45.492;11.548;2023-02-11T01:22:10;30.20;;;16.45;;
31390;SDS011;18022;45.492;11.548;2023-02-11T01:24:36;28.63;;;16.25;;
31390;SDS011;18022;45.492;11.548;2023-02-11T01:27:02;32.08;;;18.13;;
31390;SDS011;18022;45.492;11.548;2023-02-11T01:29:28;31.13;;;18.05;;
31390;SDS011;18022;45.492;11.548;2023-02-11T01:31:54;27.25;;;16.42;;
31390;SDS011;18022;45.492;11.548;2023-02-11T01:34:20;27.20;;;15.70;;
31390;SDS011;18022;45.492;11.548;2023-02-11T01:36:46;27.73;;;16.70;;
31390;SDS011;18022;45.492;11.548;2023-02-11T01:39:12;24.98;;;16.05;;
31390;SDS011;18022;45.492;11.548;2023-02-11T01:41:38;27.58;;;16.42;;
31390;SDS011;18022;45.492;11.548;2023-02-11T01:46:49;25.35;;;15.68;;
31390;SDS011;18022;45.492;11.548;2023-02-11T01:49:16;27.98;;;15.95;;
31390;SDS011;18022;45.492;11.548;2023-02-11T01:51:45;25.73;;;16.10;;
31390;SDS011;18022;45.492;11.548;2023-02-11T01:54:14;23.02;;;15.15;;
31390;SDS011;18022;45.492;11.548;2023-02-11T01:56:59;25.00;;;14.82;;
31390;SDS011;18022;45.492;11.548;2023-02-11T01:59:47;25.25;;;15.48;;
31390;SDS011;18022;45.492;11.548;2023-02-11T02:02:18;22.38;;;14.43;;
31390;SDS011;18022;45.492;11.548;2023-02-11T02:04:49;22.60;;;14.40;;
31390;SDS011;18022;45.492;11.548;2023-02-11T02:07:24;21.92;;;14.27;;
31390;SDS011;18022;45.492;11.548;2023-02-11T02:09:52;21.67;;;14.07;;
31390;SDS011;18022;45.492;11.548;2023-02-11T02:12:22;21.92;;;13.85;;
31390;SDS011;18022;45.492;11.548;2023-02-11T02:14:48;22.40;;;14.38;;
31390;SDS011;18022;45.492;11.548;2023-02-11T02:17:21;24.63;;;14.90;;
31390;SDS011;18022;45.492;11.548;2023-02-11T02:20:09;27.98;;;15.35;;
31390;SDS011;18022;45.492;11.548;2023-02-11T02:27:44;29.90;;;16.33;;
31390;SDS011;18022;45.492;11.548;2023-02-11T02:40:06;25.10;;;15.93;;
31390;SDS011;18022;45.492;11.548;2023-02-11T02:42:34;23.23;;;15.35;;
31390;SDS011;18022;45.492;11.548;2023-02-11T02:45:01;28.10;;;16.23;;
31390;SDS011;18022;45.492;11.548;2023-02-11T02:47:27;21.33;;;14.02;;
31390;SDS011;18022;45.492;11.548;2023-02-11T02:49:53;26.02;;;14.43;;
31390;SDS011;18022;45.492;11.548;2023-02-11T02:59:57;20.10;;;13.07;;
31390;SDS011;18022;45.492;11.548;2023-02-11T03:02:26;19.35;;;13.85;;
31390;SDS011;18022;45.492;11.548;2023-02-11T03:07:40;21.08;;;13.38;;
31390;SDS011;18022;45.492;11.548;2023-02-11T03:12:34;19.55;;;13.30;;
31390;SDS011;18022;45.492;11.548;2023-02-11T03:15:01;20.25;;;13.80;;
31390;SDS011;18022;45.492;11.548;2023-02-11T03:17:28;19.73;;;12.40;;
31390;SDS011;18022;45.492;11.548;2023-02-11T03:19:55;18.95;;;13.68;;
31390;SDS011;18022;45.492;11.548;2023-02-11T03:22:32;17.90;;;13.07;;
31390;SDS011;18022;45.492;11.548;2023-02-11T03:24:59;21.23;;;14.25;;
31390;SDS011;18022;45.492;11.548;2023-02-11T03:29:54;24.33;;;14.13;;
31390;SDS011;18022;45.492;11.548;2023-02-11T03:32:32;22.13;;;13.07;;
31390;SDS011;18022;45.492;11.548;2023-02-11T03:35:06;20.15;;;13.55;;
31390;SDS011;18022;45.492;11.548;2023-02-11T03:40:02;20.77;;;13.55;;
31390;SDS011;18022;45.492;11.548;2023-02-11T03:42:31;19.70;;;13.52;;
31390;SDS011;18022;45.492;11.548;2023-02-11T03:45:02;20.83;;;13.32;;
31390;SDS011;18022;45.492;11.548;2023-02-11T03:47:29;22.83;;;13.23;;
31390;SDS011;18022;45.492;11.548;2023-02-11T03:49:56;20.67;;;13.02;;
31390;SDS011;18022;45.492;11.548;2023-02-11T03:52:24;20.63;;;12.77;;
31390;SDS011;18022;45.492;11.548;2023-02-11T03:54:52;21.75;;;12.85;;
31390;SDS011;18022;45.492;11.548;2023-02-11T03:57:18;18.38;;;12.82;;
31390;SDS011;18022;45.492;11.548;2023-02-11T03:59:48;20.02;;;13.13;;
31390;SDS011;18022;45.492;11.548;2023-02-11T04:02:14;20.80;;;13.63;;
31390;SDS011;18022;45.492;11.548;2023-02-11T04:04:40;21.17;;;12.65;;
31390;SDS011;18022;45.492;11.548;2023-02-11T04:07:06;19.58;;;12.75;;
31390;SDS011;18022;45.492;11.548;2023-02-11T04:09:32;17.35;;;12.02;;
31390;SDS011;18022;45.492;11.548;2023-02-11T04:12:00;19.42;;;11.85;;
31390;SDS011;18022;45.492;11.548;2023-02-11T04:14:26;21.27;;;12.98;;
31390;SDS011;18022;45.492;11.548;2023-02-11T04:16:52;16.30;;;11.18;;
31390;SDS011;18022;45.492;11.548;2023-02-11T04:19:18;17.52;;;11.82;;
31390;SDS011;18022;45.492;11.548;2023-02-11T04:21:44;17.98;;;12.50;;
31390;SDS011;18022;45.492;11.548;2023-02-11T04:24:10;19.35;;;12.15;;
31390;SDS011;18022;45.492;11.548;2023-02-11T04:26:36;17.15;;;11.73;;
31390;SDS011;18022;45.492;11.548;2023-02-11T04:29:02;22.38;;;13.40;;
31390;SDS011;18022;45.492;11.548;2023-02-11T04:31:28;22.90;;;14.38;;
31390;SDS011;18022;45.492;11.548;2023-02-11T04:33:54;22.05;;;14.00;;
31390;SDS011;18022;45.492;11.548;2023-02-11T04:36:20;22.98;;;13.20;;
31390;SDS011;18022;45.492;11.548;2023-02-11T04:38:46;21.05;;;12.68;;
31390;SDS011;18022;45.492;11.548;2023-02-11T04:41:13;19.20;;;12.77;;
31390;SDS011;18022;45.492;11.548;2023-02-11T04:43:39;19.90;;;12.80;;
31390;SDS011;18022;45.492;11.548;2023-02-11T04:46:05;17.73;;;12.23;;
31390;SDS011;18022;45.492;11.548;2023-02-11T04:48:31;18.45;;;11.60;;
31390;SDS011;18022;45.492;11.548;2023-02-11T04:50:58;19.20;;;12.23;;
31390;SDS011;18022;45.492;11.548;2023-02-11T04:53:24;18.40;;;12.55;;
31390;SDS011;18022;45.492;11.548;2023-02-11T04:55:50;16.92;;;12.38;;
31390;SDS011;18022;45.492;11.548;2023-02-11T04:58:17;20.83;;;12.43;;
31390;SDS011;18022;45.492;11.548;2023-02-11T05:00:43;18.73;;;12.90;;
31390;SDS011;18022;45.492;11.548;2023-02-11T05:03:09;16.30;;;12.02;;
31390;SDS011;18022;45.492;11.548;2023-02-11T05:05:39;17.85;;;12.70;;
31390;SDS011;18022;45.492;11.548;2023-02-11T05:10:44;21.10;;;13.98;;
31390;SDS011;18022;45.492;11.548;2023-02-11T05:13:12;22.25;;;13.35;;
31390;SDS011;18022;45.492;11.548;2023-02-11T05:15:38;24.45;;;13.95;;
31390;SDS011;18022;45.492;11.548;2023-02-11T05:18:04;21.90;;;13.70;;
31390;SDS011;18022;45.492;11.548;2023-02-11T05:20:30;22.38;;;14.45;;
31390;SDS011;18022;45.492;11.548;2023-02-11T05:22:56;20.73;;;13.77;;
31390;SDS011;18022;45.492;11.548;2023-02-11T05:25:22;23.73;;;14.70;;
31390;SDS011;18022;45.492;11.548;2023-02-11T05:27:48;22.33;;;14.27;;
31390;SDS011;18022;45.492;11.548;2023-02-11T05:30:14;23.55;;;15.32;;
31390;SDS011;18022;45.492;11.548;2023-02-11T05:32:40;20.02;;;13.98;;
31390;SDS011;18022;45.492;11.548;2023-02-11T05:35:06;24.20;;;15.07;;
31390;SDS011;18022;45.492;11.548;2023-02-11T05:37:33;23.15;;;15.35;;
31390;SDS011;18022;45.492;11.548;2023-02-11T05:39:59;20.30;;;13.77;;
31390;SDS011;18022;45.492;11.548;2023-02-11T05:42:25;20.60;;;13.45;;
31390;SDS011;18022;45.492;11.548;2023-02-11T05:44:51;21.30;;;13.23;;
31390;SDS011;18022;45.492;11.548;2023-02-11T05:47:17;22.00;;;14.00;;
31390;SDS011;18022;45.492;11.548;2023-02-11T05:49:43;21.20;;;13.52;;
31390;SDS011;18022;45.492;11.548;2023-02-11T05:52:09;22.60;;;13.63;;
31390;SDS011;18022;45.492;11.548;2023-02-11T05:54:35;20.27;;;13.52;;
31390;SDS011;18022;45.492;11.548;2023-02-11T05:57:02;22.10;;;14.35;;
31390;SDS011;18022;45.492;11.548;2023-02-11T05:59:28;20.63;;;13.73;;
31390;SDS011;18022;45.492;11.548;2023-02-11T06:01:54;19.67;;;13.55;;
31390;SDS011;18022;45.492;11.548;2023-02-11T06:04:20;23.15;;;13.98;;
31390;SDS011;18022;45.492;11.548;2023-02-11T06:06:46;23.63;;;15.02;;
31390;SDS011;18022;45.492;11.548;2023-02-11T06:09:12;20.92;;;14.23;;
31390;SDS011;18022;45.492;11.548;2023-02-11T06:11:38;22.67;;;14.02;;
31390;SDS011;18022;45.492;11.548;2023-02-11T06:14:04;25.77;;;15.52;;
31390;SDS011;18022;45.492;11.548;2023-02-11T06:16:30;22.35;;;15.65;;
31390;SDS011;18022;45.492;11.548;2023-02-11T06:18:56;20.85;;;14.05;;
31390;SDS011;18022;45.492;11.548;2023-02-11T06:21:22;23.88;;;15.05;;
31390;SDS011;18022;45.492;11.548;2023-02-11T06:23:48;21.52;;;14.43;;
31390;SDS011;18022;45.492;11.548;2023-02-11T06:26:15;20.52;;;14.45;;
31390;SDS011;18022;45.492;11.548;2023-02-11T06:28:42;26.40;;;13.48;;
31390;SDS011;18022;45.492;11.548;2023-02-11T06:31:08;23.60;;;14.50;;
31390;SDS011;18022;45.492;11.548;2023-02-11T06:33:35;19.63;;;14.37;;
31390;SDS011;18022;45.492;11.548;2023-02-11T06:36:02;21.67;;;14.35;;
31390;SDS011;18022;45.492;11.548;2023-02-11T06:38:29;21.42;;;13.85;;
31390;SDS011;18022;45.492;11.548;2023-02-11T06:40:55;22.48;;;14.25;;
31390;SDS011;18022;45.492;11.548;2023-02-11T06:43:21;25.08;;;15.13;;
31390;SDS011;18022;45.492;11.548;2023-02-11T06:45:53;23.90;;;15.25;;
31390;SDS011;18022;45.492;11.548;2023-02-11T06:48:20;24.52;;;15.45;;
31390;SDS011;18022;45.492;11.548;2023-02-11T06:50:46;23.35;;;14.73;;
31390;SDS011;18022;45.492;11.548;2023-02-11T06:53:12;21.92;;;14.48;;
31390;SDS011;18022;45.492;11.548;2023-02-11T06:55:38;24.30;;;15.50;;
31390;SDS011;18022;45.492;11.548;2023-02-11T06:58:05;23.50;;;14.48;;
31390;SDS011;18022;45.492;11.548;2023-02-11T07:00:31;24.45;;;15.40;;
31390;SDS011;18022;45.492;11.548;2023-02-11T07:02:57;20.55;;;14.50;;
31390;SDS011;18022;45.492;11.548;2023-02-11T07:05:23;24.48;;;15.43;;
31390;SDS011;18022;45.492;11.548;2023-02-11T07:07:49;22.92;;;15.85;;
31390;SDS011;18022;45.492;11.548;2023-02-11T07:10:15;24.92;;;16.30;;
31390;SDS011;18022;45.492;11.548;2023-02-11T07:12:41;24.45;;;17.08;;
31390;SDS011;18022;45.492;11.548;2023-02-11T07:15:07;27.65;;;16.67;;
31390;SDS011;18022;45.492;11.548;2023-02-11T07:17:33;24.90;;;16.17;;
31390;SDS011;18022;45.492;11.548;2023-02-11T07:20:00;26.05;;;16.00;;
31390;SDS011;18022;45.492;11.548;2023-02-11T07:22:26;27.52;;;16.13;;
31390;SDS011;18022;45.492;11.548;2023-02-11T07:24:52;26.50;;;16.13;;
31390;SDS011;18022;45.492;11.548;2023-02-11T07:27:18;25.67;;;16.60;;
31390;SDS011;18022;45.492;11.548;2023-02-11T07:29:44;24.05;;;16.20;;
31390;SDS011;18022;45.492;11.548;2023-02-11T07:32:11;21.20;;;15.65;;
31390;SDS011;18022;45.492;11.548;2023-02-11T07:34:37;22.50;;;15.05;;
31390;SDS011;18022;45.492;11.548;2023-02-11T07:37:03;23.27;;;15.82;;
31390;SDS011;18022;45.492;11.548;2023-02-11T07:39:29;22.73;;;15.20;;
31390;SDS011;18022;45.492;11.548;2023-02-11T07:41:55;22.77;;;14.80;;
31390;SDS011;18022;45.492;11.548;2023-02-11T07:44:22;23.83;;;15.43;;
31390;SDS011;18022;45.492;11.548;2023-02-11T07:46:48;21.92;;;15.60;;
31390;SDS011;18022;45.492;11.548;2023-02-11T07:49:14;26.67;;;16.73;;
31390;SDS011;18022;45.492;11.548;2023-02-11T07:51:41;24.13;;;15.63;;
31390;SDS011;18022;45.492;11.548;2023-02-11T07:54:07;24.45;;;15.57;;
31390;SDS011;18022;45.492;11.548;2023-02-11T07:56:33;22.40;;;15.48;;
31390;SDS011;18022;45.492;11.548;2023-02-11T07:58:59;22.95;;;15.40;;
31390;SDS011;18022;45.492;11.548;2023-02-11T08:03:53;20.52;;;14.13;;
31390;SDS011;18022;45.492;11.548;2023-02-11T08:06:20;23.35;;;15.25;;
31390;SDS011;18022;45.492;11.548;2023-02-11T08:08:47;22.20;;;14.68;;
31390;SDS011;18022;45.492;11.548;2023-02-11T08:13:40;26.70;;;16.63;;
31390;SDS011;18022;45.492;11.548;2023-02-11T08:16:06;24.55;;;15.82;;
31390;SDS011;18022;45.492;11.548;2023-02-11T08:18:33;29.08;;;16.25;;
31390;SDS011;18022;45.492;11.548;2023-02-11T08:21:03;23.08;;;16.30;;
31390;SDS011;18022;45.492;11.548;2023-02-11T08:23:29;24.88;;;16.92;;
31390;SDS011;18022;45.492;11.548;2023-02-11T08:25:59;26.58;;;18.02;;
31390;SDS011;18022;45.492;11.548;2023-02-11T08:28:25;25.42;;;16.65;;
31390;SDS011;18022;45.492;11.548;2023-02-11T08:30:51;22.75;;;15.68;;
31390;SDS011;18022;45.492;11.548;2023-02-11T08:33:17;16.98;;;10.57;;
31390;SDS011;18022;45.492;11.548;2023-02-11T08:35:43;41.88;;;26.13;;
31390;SDS011;18022;45.492;11.548;2023-02-11T08:38:09;52.88;;;32.70;;
31390;SDS011;18022;45.492;11.548;2023-02-11T08:40:35;37.85;;;24.60;;
31390;SDS011;18022;45.492;11.548;2023-02-11T08:43:01;30.45;;;20.92;;
31390;SDS011;18022;45.492;11.548;2023-02-11T08:45:27;31.48;;;18.33;;
31390;SDS011;18022;45.492;11.548;2023-02-11T08:47:53;31.20;;;18.75;;
31390;SDS011;18022;45.492;11.548;2023-02-11T08:50:19;33.25;;;20.58;;
31390;SDS011;18022;45.492;11.548;2023-02-11T08:52:45;36.22;;;22.42;;
31390;SDS011;18022;45.492;11.548;2023-02-11T08:55:11;35.72;;;21.38;;
31390;SDS011;18022;45.492;11.548;2023-02-11T08:57:37;32.70;;;22.10;;
31390;SDS011;18022;45.492;11.548;2023-02-11T09:00:03;35.13;;;23.20;;
31390;SDS011;18022;45.492;11.548;2023-02-11T09:02:29;38.83;;;23.52;;
31390;SDS011;18022;45.492;11.548;2023-02-11T09:04:55;37.95;;;22.75;;
31390;SDS011;18022;45.492;11.548;2023-02-11T09:07:21;31.60;;;20.70;;
31390;SDS011;18022;45.492;11.548;2023-02-11T09:09:48;35.28;;;22.25;;
31390;SDS011;18022;45.492;11.548;2023-02-11T09:12:14;33.55;;;22.02;;
31390;SDS011;18022;45.492;11.548;2023-02-11T09:14:40;34.72;;;22.35;;
31390;SDS011;18022;45.492;11.548;2023-02-11T09:17:07;32.00;;;20.73;;
31390;SDS011;18022;45.492;11.548;2023-02-11T09:19:33;31.77;;;20.90;;
31390;SDS011;18022;45.492;11.548;2023-02-11T09:21:59;35.78;;;22.70;;
31390;SDS011;18022;45.492;11.548;2023-02-11T09:24:26;34.03;;;21.27;;
31390;SDS011;18022;45.492;11.548;2023-02-11T09:26:52;28.40;;;20.63;;
31390;SDS011;18022;45.492;11.548;2023-02-11T09:29:18;37.72;;;25.15;;
31390;SDS011;18022;45.492;11.548;2023-02-11T09:31:44;59.45;;;34.20;;
31390;SDS011;18022;45.492;11.548;2023-02-11T09:34:10;32.92;;;23.02;;
31390;SDS011;18022;45.492;11.548;2023-02-11T09:36:37;34.90;;;23.75;;
31390;SDS011;18022;45.492;11.548;2023-02-11T09:39:04;36.78;;;23.70;;
31390;SDS011;18022;45.492;11.548;2023-02-11T09:41:34;38.15;;;24.17;;
31390;SDS011;18022;45.492;11.548;2023-02-11T09:44:01;35.22;;;21.40;;
31390;SDS011;18022;45.492;11.548;2023-02-11T09:46:34;35.95;;;24.20;;
31390;SDS011;18022;45.492;11.548;2023-02-11T09:49:01;33.05;;;22.77;;
31390;SDS011;18022;45.492;11.548;2023-02-11T09:53:55;35.92;;;22.45;;
31390;SDS011;18022;45.492;11.548;2023-02-11T09:56:22;41.42;;;22.80;;
31390;SDS011;18022;45.492;11.548;2023-02-11T09:58:49;34.30;;;22.80;;
31390;SDS011;18022;45.492;11.548;2023-02-11T10:19:39;45.88;;;26.45;;
31390;SDS011;18022;45.492;11.548;2023-02-11T10:22:13;45.15;;;29.40;;
31390;SDS011;18022;45.492;11.548;2023-02-11T10:24:42;84.53;;;46.15;;
31390;SDS011;18022;45.492;11.548;2023-02-11T10:27:15;68.70;;;40.80;;
31390;SDS011;18022;45.492;11.548;2023-02-11T10:29:47;54.88;;;34.10;;
31390;SDS011;18022;45.492;11.548;2023-02-11T10:32:29;41.28;;;28.50;;
31390;SDS011;18022;45.492;11.548;2023-02-11T10:34:59;41.63;;;26.70;;
31390;SDS011;18022;45.492;11.548;2023-02-11T10:37:26;44.97;;;27.65;;
31390;SDS011;18022;45.492;11.548;2023-02-11T10:39:52;71.28;;;43.10;;
31390;SDS011;18022;45.492;11.548;2023-02-11T10:42:18;50.78;;;31.33;;
31390;SDS011;18022;45.492;11.548;2023-02-11T10:44:53;38.42;;;23.13;;
31390;SDS011;18022;45.492;11.548;2023-02-11T10:47:20;49.53;;;32.30;;
31390;SDS011;18022;45.492;11.548;2023-02-11T10:49:47;45.08;;;29.60;;
31390;SDS011;18022;45.492;11.548;2023-02-11T10:54:39;41.40;;;28.63;;
31390;SDS011;18022;45.492;11.548;2023-02-11T10:57:05;44.88;;;28.00;;
31390;SDS011;18022;45.492;11.548;2023-02-11T10:59:32;41.17;;;26.52;;
31390;SDS011;18022;45.492;11.548;2023-02-11T11:02:15;41.80;;;25.88;;
31390;SDS011;18022;45.492;11.548;2023-02-11T11:04:44;35.55;;;24.05;;
31390;SDS011;18022;45.492;11.548;2023-02-11T11:09:43;32.22;;;21.52;;
31390;SDS011;18022;45.492;11.548;2023-02-11T11:17:34;45.08;;;24.75;;
31390;SDS011;18022;45.492;11.548;2023-02-11T11:22:45;31.33;;;20.25;;
31390;SDS011;18022;45.492;11.548;2023-02-11T11:25:25;37.27;;;20.47;;
31390;SDS011;18022;45.492;11.548;2023-02-11T11:27:53;33.45;;;20.33;;
31390;SDS011;18022;45.492;11.548;2023-02-11T11:30:19;35.55;;;21.67;;
31390;SDS011;18022;45.492;11.548;2023-02-11T11:32:45;29.33;;;20.65;;
31390;SDS011;18022;45.492;11.548;2023-02-11T11:35:28;31.58;;;20.45;;
31390;SDS011;18022;45.492;11.548;2023-02-11T11:37:59;27.23;;;19.65;;
31390;SDS011;18022;45.492;11.548;2023-02-11T11:40:29;29.73;;;20.20;;
31390;SDS011;18022;45.492;11.548;2023-02-11T11:43:28;26.95;;;18.15;;
31390;SDS011;18022;45.492;11.548;2023-02-11T11:45:51;25.40;;;17.90;;
31390;SDS011;18022;45.492;11.548;2023-02-11T11:53:15;32.72;;;23.15;;
31390;SDS011;18022;45.492;11.548;2023-02-11T11:55:56;29.85;;;20.67;;
31390;SDS011;18022;45.492;11.548;2023-02-11T11:58:26;53.53;;;39.30;;
31390;SDS011;18022;45.492;11.548;2023-02-11T12:01:09;33.28;;;21.73;;
31390;SDS011;18022;45.492;11.548;2023-02-11T12:16:32;28.23;;;19.17;;
31390;SDS011;18022;45.492;11.548;2023-02-11T12:27:06;25.38;;;18.45;;
31390;SDS011;18022;45.492;11.548;2023-02-11T12:40:14;28.88;;;20.30;;
31390;SDS011;18022;45.492;11.548;2023-02-11T12:45:36;28.77;;;19.25;;
31390;SDS011;18022;45.492;11.548;2023-02-11T12:51:00;27.50;;;19.70;;
31390;SDS011;18022;45.492;11.548;2023-02-11T12:56:02;29.48;;;19.85;;
31390;SDS011;18022;45.492;11.548;2023-02-11T12:58:30;32.05;;;20.85;;
31390;SDS011;18022;45.492;11.548;2023-02-11T13:01:02;29.80;;;19.45;;
31390;SDS011;18022;45.492;11.548;2023-02-11T13:03:34;28.58;;;19.75;;
31390;SDS011;18022;45.492;11.548;2023-02-11T13:06:21;34.67;;;20.73;;
31390;SDS011;18022;45.492;11.548;2023-02-11T13:08:52;29.58;;;19.20;;
31390;SDS011;18022;45.492;11.548;2023-02-11T13:11:23;27.30;;;19.20;;
31390;SDS011;18022;45.492;11.548;2023-02-11T13:16:32;29.05;;;18.75;;
31390;SDS011;18022;45.492;11.548;2023-02-11T13:24:18;30.60;;;20.48;;
31390;SDS011;18022;45.492;11.548;2023-02-11T13:27:01;32.75;;;22.67;;
31390;SDS011;18022;45.492;11.548;2023-02-11T13:32:12;37.83;;;25.80;;
31390;SDS011;18022;45.492;11.548;2023-02-11T13:37:12;32.38;;;21.05;;
31390;SDS011;18022;45.492;11.548;2023-02-11T13:39:54;28.23;;;19.73;;
31390;SDS011;18022;45.492;11.548;2023-02-11T13:42:20;30.08;;;20.73;;
31390;SDS011;18022;45.492;11.548;2023-02-11T13:44:46;37.97;;;23.67;;
31390;SDS011;18022;45.492;11.548;2023-02-11T13:47:21;31.88;;;21.92;;
31390;SDS011;18022;45.492;11.548;2023-02-11T13:54:47;40.33;;;24.48;;
31390;SDS011;18022;45.492;11.548;2023-02-11T13:59:45;58.97;;;31.85;;
31390;SDS011;18022;45.492;11.548;2023-02-11T14:02:22;59.35;;;31.38;;
31390;SDS011;18022;45.492;11.548;2023-02-11T14:10:48;52.70;;;25.70;;
31390;SDS011;18022;45.492;11.548;2023-02-11T14:13:30;52.53;;;26.27;;
31390;SDS011;18022;45.492;11.548;2023-02-11T14:16:09;36.42;;;22.65;;
31390;SDS011;18022;45.492;11.548;2023-02-11T14:21:16;37.20;;;24.85;;
31390;SDS011;18022;45.492;11.548;2023-02-11T14:23:43;34.03;;;23.70;;
31390;SDS011;18022;45.492;11.548;2023-02-11T14:28:42;33.40;;;22.48;;
31390;SDS011;18022;45.492;11.548;2023-02-11T14:31:16;29.58;;;18.42;;
31390;SDS011;18022;45.492;11.548;2023-02-11T14:41:40;27.40;;;17.85;;
31390;SDS011;18022;45.492;11.548;2023-02-11T14:44:18;30.02;;;19.80;;
31390;SDS011;18022;45.492;11.548;2023-02-11T14:46:46;32.28;;;21.30;;
31390;SDS011;18022;45.492;11.548;2023-02-11T14:49:17;29.65;;;18.42;;
31390;SDS011;18022;45.492;11.548;2023-02-11T14:51:46;25.95;;;17.55;;
31390;SDS011;18022;45.492;11.548;2023-02-11T14:54:16;25.52;;;18.55;;
31390;SDS011;18022;45.492;11.548;2023-02-11T14:56:43;26.27;;;18.50;;
31390;SDS011;18022;45.492;11.548;2023-02-11T14:59:20;32.75;;;20.85;;
31390;SDS011;18022;45.492;11.548;2023-02-11T15:01:50;32.25;;;21.45;;
31390;SDS011;18022;45.492;11.548;2023-02-11T15:04:22;38.60;;;21.95;;
31390;SDS011;18022;45.492;11.548;2023-02-11T15:06:49;37.40;;;21.85;;
31390;SDS011;18022;45.492;11.548;2023-02-11T15:09:16;33.33;;;22.95;;
31390;SDS011;18022;45.492;11.548;2023-02-11T15:11:44;36.15;;;22.45;;
31390;SDS011;18022;45.492;11.548;2023-02-11T15:14:22;45.33;;;22.52;;
31390;SDS011;18022;45.492;11.548;2023-02-11T15:16:48;43.13;;;24.45;;
31390;SDS011;18022;45.492;11.548;2023-02-11T15:19:20;40.45;;;24.02;;
31390;SDS011;18022;45.492;11.548;2023-02-11T15:21:48;32.13;;;22.50;;
31390;SDS011;18022;45.492;11.548;2023-02-11T15:24:22;43.55;;;24.27;;
31390;SDS011;18022;45.492;11.548;2023-02-11T15:29:37;39.72;;;24.48;;
31390;SDS011;18022;45.492;11.548;2023-02-11T15:34:30;42.83;;;24.92;;
31390;SDS011;18022;45.492;11.548;2023-02-11T15:36:57;39.58;;;25.60;;
31390;SDS011;18022;45.492;11.548;2023-02-11T15:39:31;42.55;;;26.42;;
31390;SDS011;18022;45.492;11.548;2023-02-11T15:44:42;39.90;;;26.70;;
31390;SDS011;18022;45.492;11.548;2023-02-11T15:47:09;52.83;;;35.33;;
31390;SDS011;18022;45.492;11.548;2023-02-11T15:49:35;46.38;;;27.98;;
31390;SDS011;18022;45.492;11.548;2023-02-11T15:52:02;45.17;;;28.55;;
31390;SDS011;18022;45.492;11.548;2023-02-11T15:54:28;38.38;;;25.77;;
31390;SDS011;18022;45.492;11.548;2023-02-11T15:57:02;38.63;;;24.58;;
31390;SDS011;18022;45.492;11.548;2023-02-11T15:59:33;47.42;;;25.83;;
31390;SDS011;18022;45.492;11.548;2023-02-11T16:02:06;43.15;;;27.10;;
31390;SDS011;18022;45.492;11.548;2023-02-11T16:04:33;45.60;;;27.25;;
31390;SDS011;18022;45.492;11.548;2023-02-11T16:06:59;39.63;;;25.95;;
31390;SDS011;18022;45.492;11.548;2023-02-11T16:11:58;38.13;;;25.85;;
31390;SDS011;18022;45.492;11.548;2023-02-11T16:14:29;41.50;;;25.63;;
31390;SDS011;18022;45.492;11.548;2023-02-11T16:17:08;39.00;;;26.15;;
31390;SDS011;18022;45.492;11.548;2023-02-11T16:19:35;40.92;;;26.35;;
31390;SDS011;18022;45.492;11.548;2023-02-11T16:22:08;41.63;;;26.38;;
31390;SDS011;18022;45.492;11.548;2023-02-11T16:24:35;41.30;;;25.92;;
31390;SDS011;18022;45.492;11.548;2023-02-11T16:27:03;34.40;;;22.70;;
31390;SDS011;18022;45.492;11.548;2023-02-11T16:29:33;29.63;;;18.63;;
31390;SDS011;18022;45.492;11.548;2023-02-11T16:32:15;37.10;;;23.30;;
31390;SDS011;18022;45.492;11.548;2023-02-11T16:34:41;37.45;;;23.00;;
31390;SDS011;18022;45.492;11.548;2023-02-11T16:37:07;35.05;;;23.52;;
31390;SDS011;18022;45.492;11.548;2023-02-11T16:39:33;33.95;;;23.70;;
31390;SDS011;18022;45.492;11.548;2023-02-11T16:41:59;31.10;;;18.95;;
31390;SDS011;18022;45.492;11.548;2023-02-11T16:44:26;36.35;;;25.25;;
31390;SDS011;18022;45.492;11.548;2023-02-11T16:46:52;36.83;;;24.20;;
31390;SDS011;18022;45.492;11.548;2023-02-11T16:49:22;35.13;;;23.60;;
31390;SDS011;18022;45.492;11.548;2023-02-11T16:51:50;32.47;;;22.63;;
31390;SDS011;18022;45.492;11.548;2023-02-11T16:54:17;36.45;;;24.50;;
31390;SDS011;18022;45.492;11.548;2023-02-11T16:56:43;37.10;;;24.58;;
31390;SDS011;18022;45.492;11.548;2023-02-11T16:59:10;44.95;;;28.55;;
31390;SDS011;18022;45.492;11.548;2023-02-11T17:01:36;44.17;;;29.38;;
31390;SDS011;18022;45.492;11.548;2023-02-11T17:04:03;51.75;;;34.20;;
31390;SDS011;18022;45.492;11.548;2023-02-11T17:06:29;50.75;;;33.38;;
31390;SDS011;18022;45.492;11.548;2023-02-11T17:08:55;46.60;;;30.95;;